sensor_id;sensor_type;location;lat;lon;timestamp;temperature;humidity
49052;DHT22;34866;48.670;18.260;2023-03-01T00:01:27;64.30;2201.60
49052;DHT22;34866;48.670;18.260;2023-03-01T00:03:54;64.30;2201.60
49052;DHT22;34866;48.670;18.260;2023-03-01T00:06:23;64.30;2201.60
49052;DHT22;34866;48.670;18.260;2023-03-01T00:08:49;64.10;2201.60
49052;DHT22;34866;48.670;18.260;2023-03-01T00:11:23;64.20;2201.60
49052;DHT22;34866;48.670;18.260;2023-03-01T00:13:52;64.10;2201.60
49052;DHT22;34866;48.670;18.260;2023-03-01T00:16:22;64.10;2201.60
49052;DHT22;34866;48.670;18.260;2023-03-01T00:18:49;64.20;2201.60
49052;DHT22;34866;48.670;18.260;2023-03-01T00:21:16;64.10;2201.60
49052;DHT22;34866;48.670;18.260;2023-03-01T00:23:42;64.10;2201.60
49052;DHT22;34866;48.670;18.260;2023-03-01T00:26:13;64.10;2201.60
49052;DHT22;34866;48.670;18.260;2023-03-01T00:28:39;64.10;2201.60
49052;DHT22;34866;48.670;18.260;2023-03-01T00:31:24;64.10;2201.60
49052;DHT22;34866;48.670;18.260;2023-03-01T00:33:53;64.00;2201.60
49052;DHT22;34866;48.670;18.260;2023-03-01T00:36:24;64.00;2201.60
49052;DHT22;34866;48.670;18.260;2023-03-01T00:38:50;64.00;2201.60
49052;DHT22;34866;48.670;18.260;2023-03-01T00:41:18;39.30;2201.60
49052;DHT22;34866;48.670;18.260;2023-03-01T00:43:44;39.30;2201.60
49052;DHT22;34866;48.670;18.260;2023-03-01T00:46:13;39.20;2201.60
49052;DHT22;34866;48.670;18.260;2023-03-01T00:48:39;39.20;2201.60
49052;DHT22;34866;48.670;18.260;2023-03-01T00:53:32;39.20;2201.60
49052;DHT22;34866;48.670;18.260;2023-03-01T00:55:58;39.10;2201.60
49052;DHT22;34866;48.670;18.260;2023-03-01T00:58:24;39.10;2201.60
49052;DHT22;34866;48.670;18.260;2023-03-01T01:00:50;39.10;2201.60
49052;DHT22;34866;48.670;18.260;2023-03-01T01:03:15;39.10;2201.60
49052;DHT22;34866;48.670;18.260;2023-03-01T01:05:41;39.10;2201.60
49052;DHT22;34866;48.670;18.260;2023-03-01T01:08:07;39.00;2201.60
49052;DHT22;34866;48.670;18.260;2023-03-01T01:10:34;39.00;2201.60
49052;DHT22;34866;48.670;18.260;2023-03-01T01:13:00;39.00;2201.60
49052;DHT22;34866;48.670;18.260;2023-03-01T01:15:26;38.90;2201.60
49052;DHT22;34866;48.670;18.260;2023-03-01T01:17:52;39.00;2201.60
49052;DHT22;34866;48.670;18.260;2023-03-01T01:20:18;38.90;2201.60
49052;DHT22;34866;48.670;18.260;2023-03-01T01:22:43;38.90;2201.60
49052;DHT22;34866;48.670;18.260;2023-03-01T01:25:09;38.90;2201.60
49052;DHT22;34866;48.670;18.260;2023-03-01T01:27:36;38.90;2201.60
49052;DHT22;34866;48.670;18.260;2023-03-01T01:30:02;38.90;2201.60
49052;DHT22;34866;48.670;18.260;2023-03-01T01:32:29;38.90;2201.60
49052;DHT22;34866;48.670;18.260;2023-03-01T01:34:54;39.00;2201.60
49052;DHT22;34866;48.670;18.260;2023-03-01T01:37:21;39.00;2201.60
49052;DHT22;34866;48.670;18.260;2023-03-01T01:39:46;38.90;2201.60
49052;DHT22;34866;48.670;18.260;2023-03-01T01:42:16;39.00;2201.60
49052;DHT22;34866;48.670;18.260;2023-03-01T01:44:45;39.00;2201.60
49052;DHT22;34866;48.670;18.260;2023-03-01T01:47:19;38.90;2201.60
49052;DHT22;34866;48.670;18.260;2023-03-01T01:49:49;39.00;2201.60
49052;DHT22;34866;48.670;18.260;2023-03-01T01:52:29;39.00;2201.60
49052;DHT22;34866;48.670;18.260;2023-03-01T01:55:05;38.90;2201.60
49052;DHT22;34866;48.670;18.260;2023-03-01T01:57:36;38.80;2201.60
49052;DHT22;34866;48.670;18.260;2023-03-01T02:00:10;38.80;2201.60
49052;DHT22;34866;48.670;18.260;2023-03-01T02:02:37;38.80;2201.60
49052;DHT22;34866;48.670;18.260;2023-03-01T02:05:15;38.90;2201.60
49052;DHT22;34866;48.670;18.260;2023-03-01T02:07:42;38.90;2201.60
49052;DHT22;34866;48.670;18.260;2023-03-01T02:10:09;38.80;2201.60
49052;DHT22;34866;48.670;18.260;2023-03-01T02:12:36;38.60;2201.60
49052;DHT22;34866;48.670;18.260;2023-03-01T02:15:05;38.70;2201.60
49052;DHT22;34866;48.670;18.260;2023-03-01T02:17:31;38.70;2201.60
49052;DHT22;34866;48.670;18.260;2023-03-01T02:20:33;38.80;2201.60
49052;DHT22;34866;48.670;18.260;2023-03-01T02:23:00;38.70;2201.60
49052;DHT22;34866;48.670;18.260;2023-03-01T02:25:40;38.70;2201.60
49052;DHT22;34866;48.670;18.260;2023-03-01T02:30:46;38.70;2201.60
49052;DHT22;34866;48.670;18.260;2023-03-01T02:33:32;38.70;2201.60
49052;DHT22;34866;48.670;18.260;2023-03-01T02:36:03;38.70;2201.60
49052;DHT22;34866;48.670;18.260;2023-03-01T02:38:32;38.60;2201.60
49052;DHT22;34866;48.670;18.260;2023-03-01T02:40:58;38.60;2201.60
49052;DHT22;34866;48.670;18.260;2023-03-01T02:43:30;38.60;2201.60
49052;DHT22;34866;48.670;18.260;2023-03-01T02:45:59;38.60;2201.60
49052;DHT22;34866;48.670;18.260;2023-03-01T02:48:27;38.60;2201.60
49052;DHT22;34866;48.670;18.260;2023-03-01T02:56:36;38.60;2201.60
49052;DHT22;34866;48.670;18.260;2023-03-01T02:59:02;38.60;2201.60
49052;DHT22;34866;48.670;18.260;2023-03-01T03:01:28;38.50;2201.60
49052;DHT22;34866;48.670;18.260;2023-03-01T03:04:08;38.50;2201.60
49052;DHT22;34866;48.670;18.260;2023-03-01T03:06:35;38.50;2201.60
49052;DHT22;34866;48.670;18.260;2023-03-01T03:09:01;38.40;2201.60
49052;DHT22;34866;48.670;18.260;2023-03-01T03:11:27;38.50;2201.60
49052;DHT22;34866;48.670;18.260;2023-03-01T03:13:53;38.40;2201.60
49052;DHT22;34866;48.670;18.260;2023-03-01T03:16:20;13.70;2201.60
49052;DHT22;34866;48.670;18.260;2023-03-01T03:18:46;38.50;2201.60
49052;DHT22;34866;48.670;18.260;2023-03-01T03:21:13;38.40;2201.60
49052;DHT22;34866;48.670;18.260;2023-03-01T03:23:39;38.40;2201.60
49052;DHT22;34866;48.670;18.260;2023-03-01T03:26:05;38.40;2201.60
49052;DHT22;34866;48.670;18.260;2023-03-01T03:28:33;38.40;2201.60
49052;DHT22;34866;48.670;18.260;2023-03-01T03:31:00;38.40;2201.60
49052;DHT22;34866;48.670;18.260;2023-03-01T03:33:30;38.40;2201.60
49052;DHT22;34866;48.670;18.260;2023-03-01T03:35:56;38.40;2201.60
49052;DHT22;34866;48.670;18.260;2023-03-01T03:38:21;38.40;2201.60
49052;DHT22;34866;48.670;18.260;2023-03-01T03:41:06;13.70;2201.60
49052;DHT22;34866;48.670;18.260;2023-03-01T03:43:34;38.40;2201.60
49052;DHT22;34866;48.670;18.260;2023-03-01T03:46:01;38.40;2201.60
49052;DHT22;34866;48.670;18.260;2023-03-01T03:48:35;38.40;2201.60
49052;DHT22;34866;48.670;18.260;2023-03-01T03:51:01;38.40;2201.60
49052;DHT22;34866;48.670;18.260;2023-03-01T03:53:28;38.40;2201.60
49052;DHT22;34866;48.670;18.260;2023-03-01T03:55:54;13.70;2201.60
49052;DHT22;34866;48.670;18.260;2023-03-01T03:58:22;38.40;2201.60
49052;DHT22;34866;48.670;18.260;2023-03-01T04:00:51;38.40;2201.60
49052;DHT22;34866;48.670;18.260;2023-03-01T04:03:19;38.40;2201.60
49052;DHT22;34866;48.670;18.260;2023-03-01T04:05:46;38.40;2201.60
49052;DHT22;34866;48.670;18.260;2023-03-01T04:08:12;13.70;2201.60
49052;DHT22;34866;48.670;18.260;2023-03-01T04:10:44;38.40;2201.60
49052;DHT22;34866;48.670;18.260;2023-03-01T04:13:12;13.70;2201.60
49052;DHT22;34866;48.670;18.260;2023-03-01T04:15:38;13.60;2201.60
49052;DHT22;34866;48.670;18.260;2023-03-01T04:18:04;13.60;2201.60
49052;DHT22;34866;48.670;18.260;2023-03-01T04:20:33;13.30;2201.60
49052;DHT22;34866;48.670;18.260;2023-03-01T04:25:40;13.60;2201.60
49052;DHT22;34866;48.670;18.260;2023-03-01T04:28:07;13.50;2201.60
49052;DHT22;34866;48.670;18.260;2023-03-01T04:30:33;13.60;2201.60
49052;DHT22;34866;48.670;18.260;2023-03-01T04:33:03;13.60;2201.60
49052;DHT22;34866;48.670;18.260;2023-03-01T04:35:29;13.60;2201.60
49052;DHT22;34866;48.670;18.260;2023-03-01T04:37:55;13.60;2201.60
49052;DHT22;34866;48.670;18.260;2023-03-01T04:40:21;13.60;2201.60
49052;DHT22;34866;48.670;18.260;2023-03-01T04:42:47;13.60;2201.60
49052;DHT22;34866;48.670;18.260;2023-03-01T04:45:12;13.60;2201.60
49052;DHT22;34866;48.670;18.260;2023-03-01T04:47:43;13.60;2201.60
49052;DHT22;34866;48.670;18.260;2023-03-01T04:50:16;13.60;2201.60
49052;DHT22;34866;48.670;18.260;2023-03-01T04:52:43;13.60;2201.60
49052;DHT22;34866;48.670;18.260;2023-03-01T04:55:10;13.50;2201.60
49052;DHT22;34866;48.670;18.260;2023-03-01T04:57:36;13.50;2201.60
49052;DHT22;34866;48.670;18.260;2023-03-01T05:00:03;13.50;2201.60
49052;DHT22;34866;48.670;18.260;2023-03-01T05:02:47;13.50;2201.60
49052;DHT22;34866;48.670;18.260;2023-03-01T05:05:14;13.50;2201.60
49052;DHT22;34866;48.670;18.260;2023-03-01T05:07:40;13.50;2201.60
49052;DHT22;34866;48.670;18.260;2023-03-01T05:10:06;13.60;2201.60
49052;DHT22;34866;48.670;18.260;2023-03-01T05:12:31;13.50;2201.60
49052;DHT22;34866;48.670;18.260;2023-03-01T05:14:57;13.50;2201.60
49052;DHT22;34866;48.670;18.260;2023-03-01T05:17:23;13.60;2201.60
49052;DHT22;34866;48.670;18.260;2023-03-01T05:19:49;13.60;2201.60
49052;DHT22;34866;48.670;18.260;2023-03-01T05:22:16;13.60;2201.60
49052;DHT22;34866;48.670;18.260;2023-03-01T05:24:44;13.50;2201.60
49052;DHT22;34866;48.670;18.260;2023-03-01T05:27:11;13.60;2201.60
49052;DHT22;34866;48.670;18.260;2023-03-01T05:29:37;13.60;2201.60
49052;DHT22;34866;48.670;18.260;2023-03-01T05:32:04;13.50;2201.60
49052;DHT22;34866;48.670;18.260;2023-03-01T05:34:32;13.60;2201.60
49052;DHT22;34866;48.670;18.260;2023-03-01T05:37:00;13.50;2201.60
49052;DHT22;34866;48.670;18.260;2023-03-01T05:39:28;13.50;2201.60
49052;DHT22;34866;48.670;18.260;2023-03-01T05:41:58;13.50;2201.60
49052;DHT22;34866;48.670;18.260;2023-03-01T05:44:25;13.50;2201.60
49052;DHT22;34866;48.670;18.260;2023-03-01T05:46:50;13.50;2201.60
49052;DHT22;34866;48.670;18.260;2023-03-01T05:49:17;13.50;2201.60
49052;DHT22;34866;48.670;18.260;2023-03-01T05:51:47;13.40;2201.60
49052;DHT22;34866;48.670;18.260;2023-03-01T05:54:13;13.30;2201.60
49052;DHT22;34866;48.670;18.260;2023-03-01T05:56:38;13.30;2201.60
49052;DHT22;34866;48.670;18.260;2023-03-01T05:59:07;13.30;2201.60
49052;DHT22;34866;48.670;18.260;2023-03-01T06:01:33;13.30;2201.60
49052;DHT22;34866;48.670;18.260;2023-03-01T06:04:00;13.20;2201.60
49052;DHT22;34866;48.670;18.260;2023-03-01T06:06:25;13.20;2201.60
49052;DHT22;34866;48.670;18.260;2023-03-01T06:08:52;13.10;2201.60
49052;DHT22;34866;48.670;18.260;2023-03-01T06:11:18;13.00;2201.60
49052;DHT22;34866;48.670;18.260;2023-03-01T06:13:44;0.00;2201.60
49052;DHT22;34866;48.670;18.260;2023-03-01T06:16:11;12.90;2201.60
49052;DHT22;34866;48.670;18.260;2023-03-01T06:18:37;0.00;2201.60
49052;DHT22;34866;48.670;18.260;2023-03-01T06:21:04;0.10;2048.00
49052;DHT22;34866;48.670;18.260;2023-03-01T06:23:30;0.20;1331.20
49052;DHT22;34866;48.670;18.260;2023-03-01T06:25:56;0.30;1152.00
49052;DHT22;34866;48.670;18.260;2023-03-01T06:28:22;0.30;1254.40
49052;DHT22;34866;48.670;18.260;2023-03-01T06:30:51;0.40;1152.00
49052;DHT22;34866;48.670;18.260;2023-03-01T06:33:18;0.50;921.60
49052;DHT22;34866;48.670;18.260;2023-03-01T06:35:46;0.40;921.60
49052;DHT22;34866;48.670;18.260;2023-03-01T06:38:12;0.50;1331.20
49052;DHT22;34866;48.670;18.260;2023-03-01T06:40:40;0.40;1792.00
49052;DHT22;34866;48.670;18.260;2023-03-01T06:43:06;0.30;2073.60
49052;DHT22;34866;48.670;18.260;2023-03-01T06:45:33;0.30;2201.60
49052;DHT22;34866;48.670;18.260;2023-03-01T06:48:05;0.30;2201.60
49052;DHT22;34866;48.670;18.260;2023-03-01T06:50:32;0.30;2201.60
49052;DHT22;34866;48.670;18.260;2023-03-01T06:52:58;0.40;2201.60
49052;DHT22;34866;48.670;18.260;2023-03-01T06:55:24;0.40;2201.60
49052;DHT22;34866;48.670;18.260;2023-03-01T06:57:55;0.50;2073.60
49052;DHT22;34866;48.670;18.260;2023-03-01T07:00:21;0.50;1715.20
49052;DHT22;34866;48.670;18.260;2023-03-01T07:02:47;0.60;1715.20
49052;DHT22;34866;48.670;18.260;2023-03-01T07:05:13;0.70;1638.40
49052;DHT22;34866;48.670;18.260;2023-03-01T07:07:38;0.80;1203.20
49052;DHT22;34866;48.670;18.260;2023-03-01T07:10:05;25.60;1203.20
49052;DHT22;34866;48.670;18.260;2023-03-01T07:12:31;25.60;435.20
49052;DHT22;34866;48.670;18.260;2023-03-01T07:14:56;0.90;332.80
49052;DHT22;34866;48.670;18.260;2023-03-01T07:17:22;25.70;281.60
49052;DHT22;34866;48.670;18.260;2023-03-01T07:19:48;25.80;614.40
49052;DHT22;34866;48.670;18.260;2023-03-01T07:22:13;25.80;793.60
49052;DHT22;34866;48.670;18.260;2023-03-01T07:24:41;25.80;998.40
49052;DHT22;34866;48.670;18.260;2023-03-01T07:27:06;26.30;921.60
49052;DHT22;34866;48.670;18.260;2023-03-01T07:29:32;26.00;588.80
49052;DHT22;34866;48.670;18.260;2023-03-01T07:31:59;26.30;614.40
49052;DHT22;34866;48.670;18.260;2023-03-01T07:34:25;26.30;435.20
49052;DHT22;34866;48.670;18.260;2023-03-01T07:36:51;26.30;128.00
49052;DHT22;34866;48.670;18.260;2023-03-01T07:39:17;26.30;6451.20
49052;DHT22;34866;48.670;18.260;2023-03-01T07:41:43;26.30;6451.20
49052;DHT22;34866;48.670;18.260;2023-03-01T07:44:09;26.50;6451.20
49052;DHT22;34866;48.670;18.260;2023-03-01T07:46:34;26.30;6451.20
49052;DHT22;34866;48.670;18.260;2023-03-01T07:49:00;26.30;6451.20
49052;DHT22;34866;48.670;18.260;2023-03-01T07:51:26;26.40;6451.20
49052;DHT22;34866;48.670;18.260;2023-03-01T07:53:51;26.30;6451.20
49052;DHT22;34866;48.670;18.260;2023-03-01T07:56:17;26.40;6451.20
49052;DHT22;34866;48.670;18.260;2023-03-01T07:58:45;26.20;6451.20
49052;DHT22;34866;48.670;18.260;2023-03-01T08:01:13;26.20;6451.20
49052;DHT22;34866;48.670;18.260;2023-03-01T08:03:40;26.40;6451.20
49052;DHT22;34866;48.670;18.260;2023-03-01T08:06:07;51.20;6476.80
49052;DHT22;34866;48.670;18.260;2023-03-01T08:08:34;26.40;6451.20
49052;DHT22;34866;48.670;18.260;2023-03-01T08:11:02;51.20;6476.80
49052;DHT22;34866;48.670;18.260;2023-03-01T08:13:29;51.30;6476.80
49052;DHT22;34866;48.670;18.260;2023-03-01T08:16:00;51.40;6476.80
49052;DHT22;34866;48.670;18.260;2023-03-01T08:18:27;51.60;6476.80
49052;DHT22;34866;48.670;18.260;2023-03-01T08:20:52;51.90;6476.80
49052;DHT22;34866;48.670;18.260;2023-03-01T08:23:18;52.00;6476.80
49052;DHT22;34866;48.670;18.260;2023-03-01T08:25:44;51.80;6476.80
49052;DHT22;34866;48.670;18.260;2023-03-01T08:28:09;52.00;6476.80
49052;DHT22;34866;48.670;18.260;2023-03-01T08:30:35;51.90;6476.80
49052;DHT22;34866;48.670;18.260;2023-03-01T08:33:01;51.90;6476.80
49052;DHT22;34866;48.670;18.260;2023-03-01T08:35:26;52.00;6476.80
49052;DHT22;34866;48.670;18.260;2023-03-01T08:37:52;52.10;6476.80
49052;DHT22;34866;48.670;18.260;2023-03-01T08:40:18;52.10;6476.80
49052;DHT22;34866;48.670;18.260;2023-03-01T08:42:44;76.90;6476.80
49052;DHT22;34866;48.670;18.260;2023-03-01T08:45:10;77.00;6476.80
49052;DHT22;34866;48.670;18.260;2023-03-01T08:47:36;77.00;6476.80
49052;DHT22;34866;48.670;18.260;2023-03-01T08:50:04;77.00;6476.80
49052;DHT22;34866;48.670;18.260;2023-03-01T08:52:29;77.10;6476.80
49052;DHT22;34866;48.670;18.260;2023-03-01T08:54:56;77.30;6476.80
49052;DHT22;34866;48.670;18.260;2023-03-01T08:57:22;77.50;6476.80
49052;DHT22;34866;48.670;18.260;2023-03-01T08:59:49;77.60;6476.80
49052;DHT22;34866;48.670;18.260;2023-03-01T09:02:17;77.50;6476.80
49052;DHT22;34866;48.670;18.260;2023-03-01T09:04:43;77.70;6476.80
49052;DHT22;34866;48.670;18.260;2023-03-01T09:07:10;77.70;6476.80
49052;DHT22;34866;48.670;18.260;2023-03-01T09:09:36;77.60;6476.80
49052;DHT22;34866;48.670;18.260;2023-03-01T09:12:04;77.60;6476.80
49052;DHT22;34866;48.670;18.260;2023-03-01T09:14:30;77.70;6476.80
49052;DHT22;34866;48.670;18.260;2023-03-01T09:16:56;102.40;6476.80
49052;DHT22;34866;48.670;18.260;2023-03-01T09:19:22;102.60;6476.80
49052;DHT22;34866;48.670;18.260;2023-03-01T09:21:47;102.70;6476.80
49052;DHT22;34866;48.670;18.260;2023-03-01T09:24:21;103.10;6476.80
49052;DHT22;34866;48.670;18.260;2023-03-01T09:26:47;103.00;6476.80
49052;DHT22;34866;48.670;18.260;2023-03-01T09:29:13;128.00;6502.40
49052;DHT22;34866;48.670;18.260;2023-03-01T09:31:40;153.60;512.00
49052;DHT22;34866;48.670;18.260;2023-03-01T09:34:06;154.50;6502.40
49052;DHT22;34866;48.670;18.260;2023-03-01T09:36:38;154.10;6502.40
49052;DHT22;34866;48.670;18.260;2023-03-01T09:39:10;179.50;6502.40
49052;DHT22;34866;48.670;18.260;2023-03-01T09:46:59;179.80;6502.40
49052;DHT22;34866;48.670;18.260;2023-03-01T09:49:33;179.60;6502.40
49052;DHT22;34866;48.670;18.260;2023-03-01T09:55:27;179.60;6502.40
49052;DHT22;34866;48.670;18.260;2023-03-01T10:04:27;435.90;128.00
49052;DHT22;34866;48.670;18.260;2023-03-01T10:07:21;486.70;128.00
49052;DHT22;34866;48.670;18.260;2023-03-01T10:09:52;436.10;128.00
49052;DHT22;34866;48.670;18.260;2023-03-01T10:12:22;307.40;128.00
49052;DHT22;34866;48.670;18.260;2023-03-01T10:15:10;281.70;6528.00
49052;DHT22;34866;48.670;18.260;2023-03-01T10:18:10;282.00;6528.00
49052;DHT22;34866;48.670;18.260;2023-03-01T10:20:48;231.30;6502.40
49052;DHT22;34866;48.670;18.260;2023-03-01T10:23:17;205.70;6502.40
49052;DHT22;34866;48.670;18.260;2023-03-01T10:26:15;205.50;6502.40
49052;DHT22;34866;48.670;18.260;2023-03-01T10:31:43;205.50;6502.40
49052;DHT22;34866;48.670;18.260;2023-03-01T10:34:18;205.50;6502.40
49052;DHT22;34866;48.670;18.260;2023-03-01T10:36:51;204.80;6502.40
49052;DHT22;34866;48.670;18.260;2023-03-01T10:39:35;205.40;6502.40
49052;DHT22;34866;48.670;18.260;2023-03-01T10:42:04;230.50;6502.40
49052;DHT22;34866;48.670;18.260;2023-03-01T10:47:24;205.50;6502.40
49052;DHT22;34866;48.670;18.260;2023-03-01T10:50:02;205.60;6502.40
49052;DHT22;34866;48.670;18.260;2023-03-01T10:52:34;205.40;6502.40
49052;DHT22;34866;48.670;18.260;2023-03-01T10:57:43;230.70;6502.40
49052;DHT22;34866;48.670;18.260;2023-03-01T11:03:00;230.70;6502.40
49052;DHT22;34866;48.670;18.260;2023-03-01T11:05:27;256.10;6502.40
49052;DHT22;34866;48.670;18.260;2023-03-01T11:07:57;256.30;6502.40
49052;DHT22;34866;48.670;18.260;2023-03-01T11:10:35;256.00;6502.40
49052;DHT22;34866;48.670;18.260;2023-03-01T11:15:37;282.00;6528.00
49052;DHT22;34866;48.670;18.260;2023-03-01T11:18:03;281.80;6528.00
49052;DHT22;34866;48.670;18.260;2023-03-01T11:20:38;307.40;128.00
49052;DHT22;34866;48.670;18.260;2023-03-01T11:23:08;307.50;128.00
49052;DHT22;34866;48.670;18.260;2023-03-01T11:25:42;333.70;128.00
49052;DHT22;34866;48.670;18.260;2023-03-01T11:28:15;358.40;128.00
49052;DHT22;34866;48.670;18.260;2023-03-01T11:30:55;359.30;128.00
49052;DHT22;34866;48.670;18.260;2023-03-01T11:38:46;410.40;614.40
49052;DHT22;34866;48.670;18.260;2023-03-01T11:41:25;409.90;588.80
49052;DHT22;34866;48.670;18.260;2023-03-01T11:43:52;435.80;614.40
49052;DHT22;34866;48.670;18.260;2023-03-01T11:52:06;384.20;128.00
49052;DHT22;34866;48.670;18.260;2023-03-01T12:18:21;615.00;563.20
49052;DHT22;34866;48.670;18.260;2023-03-01T12:26:10;512.90;128.00
49052;DHT22;34866;48.670;18.260;2023-03-01T12:34:37;461.30;128.00
49052;DHT22;34866;48.670;18.260;2023-03-01T12:37:16;486.80;128.00
49052;DHT22;34866;48.670;18.260;2023-03-01T12:40:19;410.00;128.00
49052;DHT22;34866;48.670;18.260;2023-03-01T12:46:10;435.90;128.00
49052;DHT22;34866;48.670;18.260;2023-03-01T12:51:40;307.40;128.00
49052;DHT22;34866;48.670;18.260;2023-03-01T12:54:16;281.90;6528.00
49052;DHT22;34866;48.670;18.260;2023-03-01T12:56:52;256.90;6502.40
49052;DHT22;34866;48.670;18.260;2023-03-01T13:02:55;282.00;6528.00
49052;DHT22;34866;48.670;18.260;2023-03-01T13:11:04;256.90;6502.40
49052;DHT22;34866;48.670;18.260;2023-03-01T13:13:31;256.70;6502.40
49052;DHT22;34866;48.670;18.260;2023-03-01T13:15:57;256.90;563.20
49052;DHT22;34866;48.670;18.260;2023-03-01T13:18:42;282.00;588.80
49052;DHT22;34866;48.670;18.260;2023-03-01T13:21:07;256.90;563.20
49052;DHT22;34866;48.670;18.260;2023-03-01T13:23:37;256.90;6502.40
49052;DHT22;34866;48.670;18.260;2023-03-01T13:26:04;282.00;588.80
49052;DHT22;34866;48.670;18.260;2023-03-01T13:31:55;282.30;6528.00
49052;DHT22;34866;48.670;18.260;2023-03-01T13:33:57;256.90;6502.40
49052;DHT22;34866;48.670;18.260;2023-03-01T13:39:18;281.90;6528.00
49052;DHT22;34866;48.670;18.260;2023-03-01T13:41:54;282.00;6528.00
49052;DHT22;34866;48.670;18.260;2023-03-01T13:47:14;281.80;6528.00
49052;DHT22;34866;48.670;18.260;2023-03-01T13:52:40;282.30;6528.00
49052;DHT22;34866;48.670;18.260;2023-03-01T13:57:56;282.00;6528.00
49052;DHT22;34866;48.670;18.260;2023-03-01T14:00:39;282.00;6528.00
49052;DHT22;34866;48.670;18.260;2023-03-01T14:03:18;282.10;6528.00
49052;DHT22;34866;48.670;18.260;2023-03-01T14:05:58;282.10;6528.00
49052;DHT22;34866;48.670;18.260;2023-03-01T14:08:26;282.10;6528.00
49052;DHT22;34866;48.670;18.260;2023-03-01T14:16:24;282.30;6528.00
49052;DHT22;34866;48.670;18.260;2023-03-01T14:21:27;282.20;6528.00
49052;DHT22;34866;48.670;18.260;2023-03-01T14:23:53;282.50;6528.00
49052;DHT22;34866;48.670;18.260;2023-03-01T14:26:25;282.50;6528.00
49052;DHT22;34866;48.670;18.260;2023-03-01T14:28:51;307.40;128.00
49052;DHT22;34866;48.670;18.260;2023-03-01T14:31:34;307.20;128.00
49052;DHT22;34866;48.670;18.260;2023-03-01T14:34:00;282.20;6528.00
49052;DHT22;34866;48.670;18.260;2023-03-01T14:36:29;282.30;6528.00
49052;DHT22;34866;48.670;18.260;2023-03-01T14:38:55;282.50;6528.00
49052;DHT22;34866;48.670;18.260;2023-03-01T14:41:25;307.40;128.00
49052;DHT22;34866;48.670;18.260;2023-03-01T14:44:01;307.40;128.00
49052;DHT22;34866;48.670;18.260;2023-03-01T14:46:36;307.90;128.00
49052;DHT22;34866;48.670;18.260;2023-03-01T14:49:12;307.40;128.00
49052;DHT22;34866;48.670;18.260;2023-03-01T14:51:40;307.50;128.00
49052;DHT22;34866;48.670;18.260;2023-03-01T14:54:31;307.50;128.00
49052;DHT22;34866;48.670;18.260;2023-03-01T14:57:01;282.40;6528.00
49052;DHT22;34866;48.670;18.260;2023-03-01T14:59:27;307.40;128.00
49052;DHT22;34866;48.670;18.260;2023-03-01T15:01:56;307.40;128.00
49052;DHT22;34866;48.670;18.260;2023-03-01T15:04:23;307.40;128.00
49052;DHT22;34866;48.670;18.260;2023-03-01T15:06:53;307.40;128.00
49052;DHT22;34866;48.670;18.260;2023-03-01T15:09:20;307.90;128.00
49052;DHT22;34866;48.670;18.260;2023-03-01T15:11:46;307.50;128.00
49052;DHT22;34866;48.670;18.260;2023-03-01T15:14:38;358.60;128.00
49052;DHT22;34866;48.670;18.260;2023-03-01T15:17:34;461.00;128.00
49052;DHT22;34866;48.670;18.260;2023-03-01T15:20:04;486.50;128.00
49052;DHT22;34866;48.670;18.260;2023-03-01T15:22:30;436.00;640.00
49052;DHT22;34866;48.670;18.260;2023-03-01T15:24:56;461.30;128.00
49052;DHT22;34866;48.670;18.260;2023-03-01T15:27:24;435.70;128.00
49052;DHT22;34866;48.670;18.260;2023-03-01T15:29:56;435.40;665.60
49052;DHT22;34866;48.670;18.260;2023-03-01T15:32:33;435.90;128.00
49052;DHT22;34866;48.670;18.260;2023-03-01T15:35:00;436.00;665.60
49052;DHT22;34866;48.670;18.260;2023-03-01T15:37:45;384.10;640.00
49052;DHT22;34866;48.670;18.260;2023-03-01T15:40:27;307.50;128.00
49052;DHT22;34866;48.670;18.260;2023-03-01T15:42:59;282.50;6528.00
49052;DHT22;34866;48.670;18.260;2023-03-01T15:45:27;282.00;6528.00
49052;DHT22;34866;48.670;18.260;2023-03-01T15:47:56;282.50;6528.00
49052;DHT22;34866;48.670;18.260;2023-03-01T15:50:30;307.60;128.00
49052;DHT22;34866;48.670;18.260;2023-03-01T15:52:56;307.90;128.00
49052;DHT22;34866;48.670;18.260;2023-03-01T15:55:24;282.00;6528.00
49052;DHT22;34866;48.670;18.260;2023-03-01T16:00:30;282.20;6528.00
49052;DHT22;34866;48.670;18.260;2023-03-01T16:02:56;256.10;6502.40
49052;DHT22;34866;48.670;18.260;2023-03-01T16:05:23;231.30;6502.40
49052;DHT22;34866;48.670;18.260;2023-03-01T16:07:50;230.80;6502.40
49052;DHT22;34866;48.670;18.260;2023-03-01T16:10:16;230.70;6502.40
49052;DHT22;34866;48.670;18.260;2023-03-01T16:12:43;230.50;6502.40
49052;DHT22;34866;48.670;18.260;2023-03-01T16:15:18;230.50;6502.40
49052;DHT22;34866;48.670;18.260;2023-03-01T16:17:44;230.60;6502.40
49052;DHT22;34866;48.670;18.260;2023-03-01T16:20:13;205.60;6502.40
49052;DHT22;34866;48.670;18.260;2023-03-01T16:22:43;205.40;6502.40
49052;DHT22;34866;48.670;18.260;2023-03-01T16:25:11;205.00;6502.40
49052;DHT22;34866;48.670;18.260;2023-03-01T16:27:44;204.90;6502.40
49052;DHT22;34866;48.670;18.260;2023-03-01T16:30:11;204.80;6502.40
49052;DHT22;34866;48.670;18.260;2023-03-01T16:32:42;179.90;6502.40
49052;DHT22;34866;48.670;18.260;2023-03-01T16:35:09;179.80;128.00
49052;DHT22;34866;48.670;18.260;2023-03-01T16:37:36;179.60;409.60
49052;DHT22;34866;48.670;18.260;2023-03-01T16:40:06;179.40;6502.40
49052;DHT22;34866;48.670;18.260;2023-03-01T16:42:38;179.40;486.40
49052;DHT22;34866;48.670;18.260;2023-03-01T16:45:04;179.30;6502.40
49052;DHT22;34866;48.670;18.260;2023-03-01T16:47:33;154.40;6502.40
49052;DHT22;34866;48.670;18.260;2023-03-01T16:49:58;154.20;6502.40
49052;DHT22;34866;48.670;18.260;2023-03-01T16:52:24;154.00;6502.40
49052;DHT22;34866;48.670;18.260;2023-03-01T16:54:50;153.90;6502.40
49052;DHT22;34866;48.670;18.260;2023-03-01T16:57:15;153.80;6502.40
49052;DHT22;34866;48.670;18.260;2023-03-01T16:59:41;153.80;6502.40
49052;DHT22;34866;48.670;18.260;2023-03-01T17:02:12;153.60;6502.40
49052;DHT22;34866;48.670;18.260;2023-03-01T17:04:42;128.90;6502.40
49052;DHT22;34866;48.670;18.260;2023-03-01T17:07:08;128.80;6502.40